EDGS METAR and TAF | Updated Today

EDGS METAR

Siegerland Airport

Observation time: 8 min. ago

EDGS 061920Z AUTO 06007KT 9999 // FEW014/// BKN017/// BKN020/// M01/M03 Q1036

Need help? Read our tutorial on how to read METARs or read the parsed version below.

Siegerland Airport (EDGS) METAR

  • Weather conditions on Mon, 06 Feb 2023 19:20:00 +0000 (8 min. ago):
  • Present conditions: Dry
  • Clouds: A few at 427 meters; broken sky at 518 meters; broken sky at 610 meters
  • Visibility: Greater than 10 km
  • Wind: 60 degrees at 7 knots
  • Temperature: -1 celsius
  • Dew point: -3 celsius
  • Pressure: 1036 millibars
  • Remarks: None


Useful to know...

EDGS TAF

Siegerland Airport

TAF EDGS 061400Z 0615/0624 36008KT 9999 SCT020 BECMG 0617/0620 08008KT
Observation time: 5:28 hr. ago
Need help? Read our tutorial on how to read TAFs or read the parsed version below.

Parsed version of TAF for Siegerland Airport (EDGS)

  • From 06 February at 15:00 UTC, to day 06 of the month at 24:00 UTC
  • Clouds: Scattered at 610 meters
  • Visibility: Greater than 10 km
  • Wind: 360 degrees at 8
  • Expected to arise soon, from 06 February at 17:00 UTC, to day 06 of the month at 20:00 UTC
  • Wind: 80 degrees at 8